Time;durP1;ratioP1;P1;durP2;ratioP2;P2;SDS_P1;SDS_P2;PMS_P1;PMS_P2;Temp;Humidity;BMP_temperature;BMP_pressure;BME280_temperature;BME280_humidity;BME280_pressure;Samples;Min_cycle;Max_cycle;Signal;HPM_P1;HPM_P2
2023/07/26 00:01:04;;;;;;;5.03;2.00;;;12.50;99.90;;;;;;5032848;28;20827;-62
2023/07/26 00:03:31;;;;;;;4.37;2.10;;;12.50;99.90;;;;;;5032776;28;20453;-60
2023/07/26 00:05:58;;;;;;;7.50;2.20;;;12.50;99.90;;;;;;5032927;28;20461;-58
2023/07/26 00:08:26;;;;;;;3.67;1.87;;;12.50;99.90;;;;;;5033117;28;20460;-58
2023/07/26 00:10:53;;;;;;;4.67;2.57;;;12.50;99.90;;;;;;5033109;28;20465;-58
2023/07/26 00:13:20;;;;;;;3.50;2.00;;;12.50;99.90;;;;;;5032893;28;20445;-59
2023/07/26 00:15:46;;;;;;;4.23;2.60;;;12.50;99.90;;;;;;5033202;28;20455;-59
2023/07/26 00:18:13;;;;;;;2.67;2.27;;;12.40;99.90;;;;;;5032750;28;20481;-60
2023/07/26 00:20:40;;;;;;;3.47;2.33;;;12.40;99.90;;;;;;5032727;28;20441;-59
2023/07/26 00:23:07;;;;;;;5.70;2.50;;;12.40;99.90;;;;;;5034078;28;20864;-59
2023/07/26 00:25:35;;;;;;;3.60;2.40;;;12.40;99.90;;;;;;5033178;28;20789;-58
2023/07/26 00:28:02;;;;;;;4.70;2.40;;;12.30;99.90;;;;;;5035684;28;20459;-59
2023/07/26 00:30:29;;;;;;;2.37;1.80;;;12.30;99.90;;;;;;5037254;28;20450;-59
2023/07/26 00:32:55;;;;;;;2.80;1.60;;;12.30;99.90;;;;;;5037749;28;20447;-59
2023/07/26 00:35:25;;;;;;;5.87;2.20;;;12.30;99.90;;;;;;5037210;28;20477;-58
2023/07/26 00:37:52;;;;;;;2.27;1.77;;;12.30;99.90;;;;;;5037189;28;20980;-58
2023/07/26 00:40:19;;;;;;;3.90;1.93;;;12.30;99.90;;;;;;5036837;28;20447;-58
2023/07/26 00:42:47;;;;;;;4.17;2.07;;;12.30;99.90;;;;;;5037675;28;20447;-58
2023/07/26 00:45:14;;;;;;;4.07;2.60;;;12.30;99.90;;;;;;5036826;28;20447;-59
2023/07/26 00:47:41;;;;;;;2.57;1.97;;;12.20;99.90;;;;;;5036508;28;20480;-60
2023/07/26 00:50:09;;;;;;;3.27;1.87;;;12.20;99.90;;;;;;5036505;28;20964;-59
2023/07/26 00:52:38;;;;;;;2.27;2.03;;;12.20;99.90;;;;;;5036541;28;20455;-58
2023/07/26 00:55:06;;;;;;;3.17;2.30;;;12.20;99.90;;;;;;5036586;28;20449;-62
2023/07/26 00:57:33;;;;;;;2.60;2.00;;;12.20;99.90;;;;;;5036382;28;20855;-58
2023/07/26 01:00:02;;;;;;;4.20;2.00;;;12.20;99.90;;;;;;5035891;28;20452;-58
2023/07/26 01:02:28;;;;;;;3.27;2.57;;;12.20;99.90;;;;;;5036138;28;20535;-57
2023/07/26 01:04:55;;;;;;;2.20;1.93;;;12.20;99.90;;;;;;5036953;28;20462;-61
2023/07/26 01:07:28;;;;;;;3.57;1.90;;;12.20;99.90;;;;;;5036141;28;20480;-59
2023/07/26 01:10:04;;;;;;;5.17;2.33;;;12.20;99.90;;;;;;5037436;28;20521;-58
2023/07/26 01:12:35;;;;;;;6.43;3.23;;;12.10;99.90;;;;;;5037270;28;20430;-60
2023/07/26 01:15:07;;;;;;;3.13;2.20;;;12.10;99.90;;;;;;5036346;28;20434;-58
2023/07/26 01:17:34;;;;;;;3.90;2.07;;;12.10;99.90;;;;;;5036650;28;20484;-60
2023/07/26 01:20:01;;;;;;;3.50;1.80;;;12.10;99.90;;;;;;5036623;28;20452;-60
2023/07/26 01:22:29;;;;;;;2.50;1.97;;;12.10;99.90;;;;;;5036294;28;20895;-59
2023/07/26 01:24:56;;;;;;;3.57;2.27;;;12.10;99.90;;;;;;5036033;28;20468;-58
2023/07/26 01:27:23;;;;;;;5.33;2.30;;;12.00;99.90;;;;;;5036001;28;20465;-59
2023/07/26 01:29:54;;;;;;;3.03;1.73;;;12.00;99.90;;;;;;5036190;28;20487;-59
2023/07/26 01:32:23;;;;;;;3.63;2.53;;;12.00;99.90;;;;;;5036140;28;20432;-59
2023/07/26 01:34:50;;;;;;;2.73;1.70;;;12.00;99.90;;;;;;5036234;28;20951;-58
2023/07/26 01:37:19;;;;;;;6.40;2.50;;;12.00;99.90;;;;;;5036119;28;20481;-59
2023/07/26 01:39:48;;;;;;;4.00;2.27;;;12.00;99.90;;;;;;5035536;28;20441;-58
2023/07/26 01:42:15;;;;;;;2.67;2.27;;;12.00;99.90;;;;;;5035890;28;20458;-59
2023/07/26 01:44:42;;;;;;;2.30;1.93;;;12.00;99.90;;;;;;5035845;28;20807;-60
2023/07/26 01:47:09;;;;;;;3.03;2.50;;;11.90;99.90;;;;;;5035033;28;20482;-60
2023/07/26 01:49:35;;;;;;;4.50;2.17;;;11.90;99.90;;;;;;5035598;28;20437;-59
2023/07/26 01:52:02;;;;;;;4.17;2.20;;;11.90;99.90;;;;;;5035696;28;20452;-58
2023/07/26 01:54:29;;;;;;;4.00;2.13;;;12.00;99.90;;;;;;5035799;28;20446;-59
2023/07/26 01:56:57;;;;;;;4.07;1.83;;;11.90;99.90;;;;;;5035321;28;20490;-59
2023/07/26 01:59:24;;;;;;;2.47;2.20;;;11.90;99.90;;;;;;5035458;28;20446;-59
2023/07/26 02:01:51;;;;;;;2.80;2.10;;;12.00;99.90;;;;;;5035183;28;20459;-60
2023/07/26 02:04:18;;;;;;;2.63;2.17;;;12.00;99.90;;;;;;5035834;28;20451;-59
2023/07/26 02:06:44;;;;;;;2.07;1.80;;;12.00;99.90;;;;;;5034983;28;20942;-59
2023/07/26 02:09:11;;;;;;;2.17;1.97;;;12.00;99.90;;;;;;5034718;28;20943;-58
2023/07/26 02:11:38;;;;;;;3.73;1.53;;;12.00;99.90;;;;;;5035111;28;20813;-58
2023/07/26 02:14:06;;;;;;;2.70;1.87;;;12.00;99.90;;;;;;5034641;28;20794;-59
2023/07/26 02:16:33;;;;;;;3.17;1.90;;;12.00;99.90;;;;;;5034869;28;20472;-60
2023/07/26 02:18:59;;;;;;;2.37;1.90;;;12.00;99.90;;;;;;5034931;28;20477;-59
2023/07/26 02:21:26;;;;;;;3.80;2.40;;;12.00;99.90;;;;;;5035065;28;20452;-59
2023/07/26 02:23:53;;;;;;;3.20;1.97;;;12.00;99.90;;;;;;5034986;28;20447;-60
2023/07/26 02:26:20;;;;;;;4.57;1.80;;;12.00;99.90;;;;;;5034807;28;20445;-58
2023/07/26 02:28:46;;;;;;;3.20;2.27;;;12.00;99.90;;;;;;5034319;28;21051;-59
2023/07/26 02:31:15;;;;;;;3.00;1.90;;;12.00;99.90;;;;;;5034862;28;20454;-59
2023/07/26 02:33:41;;;;;;;3.67;2.00;;;12.00;99.90;;;;;;5034800;28;20555;-59
2023/07/26 02:36:08;;;;;;;3.80;2.23;;;12.00;99.90;;;;;;5034554;28;20450;-58
2023/07/26 02:38:35;;;;;;;2.43;1.97;;;12.00;99.90;;;;;;5034567;28;20483;-60
2023/07/26 02:41:02;;;;;;;4.33;2.50;;;12.00;99.90;;;;;;5034659;28;20445;-59
2023/07/26 02:43:29;;;;;;;3.57;2.30;;;12.10;99.90;;;;;;5034696;28;20481;-58
2023/07/26 02:45:55;;;;;;;4.03;2.47;;;12.10;99.90;;;;;;5034701;28;20450;-58
2023/07/26 02:48:23;;;;;;;4.80;1.97;;;12.10;99.90;;;;;;5034002;28;20471;-58
2023/07/26 02:50:50;;;;;;;2.20;1.70;;;12.10;99.90;;;;;;5033569;28;20458;-58
2023/07/26 02:53:17;;;;;;;5.13;2.07;;;12.10;99.90;;;;;;5034428;28;20456;-59
2023/07/26 02:55:44;;;;;;;3.73;2.20;;;12.10;99.90;;;;;;5033934;28;21040;-58
2023/07/26 02:58:11;;;;;;;3.27;2.30;;;12.10;99.90;;;;;;5034028;28;20570;-59
2023/07/26 03:00:38;;;;;;;2.63;2.20;;;12.20;99.90;;;;;;5033804;28;20452;-59
2023/07/26 03:03:05;;;;;;;2.10;1.50;;;12.20;99.90;;;;;;5034045;28;20444;-59
2023/07/26 03:05:33;;;;;;;4.47;2.30;;;12.10;99.90;;;;;;5034017;28;20441;-58
2023/07/26 03:08:00;;;;;;;5.20;2.27;;;12.10;99.90;;;;;;5033828;28;20463;-58
2023/07/26 03:10:26;;;;;;;4.63;2.33;;;12.10;99.90;;;;;;5033564;28;20454;-58
2023/07/26 03:12:55;;;;;;;5.67;2.10;;;12.10;99.90;;;;;;5033940;28;20454;-58
2023/07/26 03:15:21;;;;;;;6.37;3.50;;;12.00;99.90;;;;;;5033705;28;20458;-60
2023/07/26 03:17:48;;;;;;;2.90;2.40;;;12.00;99.90;;;;;;5033682;28;20489;-59
2023/07/26 03:20:15;;;;;;;5.43;2.23;;;12.00;99.90;;;;;;5033729;28;20440;-58
2023/07/26 03:22:43;;;;;;;2.43;2.13;;;12.00;99.90;;;;;;5033755;28;20442;-59
2023/07/26 03:25:10;;;;;;;2.43;1.90;;;12.00;99.90;;;;;;5033372;28;20889;-60
2023/07/26 03:27:36;;;;;;;5.20;2.50;;;12.00;99.90;;;;;;5033610;28;20831;-60
2023/07/26 03:30:04;;;;;;;3.47;2.07;;;12.00;99.90;;;;;;5033653;28;20450;-59
2023/07/26 03:32:30;;;;;;;2.57;2.27;;;11.90;99.90;;;;;;5033169;28;20496;-59
2023/07/26 03:34:57;;;;;;;6.73;2.53;;;11.90;99.90;;;;;;5034449;28;20447;-59
2023/07/26 03:37:24;;;;;;;5.33;1.97;;;12.00;99.90;;;;;;5033365;28;20568;-59
2023/07/26 03:39:52;;;;;;;2.40;2.20;;;11.90;99.90;;;;;;5038180;28;20441;-59
2023/07/26 03:42:19;;;;;;;2.43;2.23;;;11.90;99.90;;;;;;5038888;28;20445;-58
2023/07/26 03:44:46;;;;;;;2.70;2.37;;;12.00;99.90;;;;;;5033570;28;20459;-59
2023/07/26 03:47:12;;;;;;;2.30;1.90;;;11.90;99.90;;;;;;5033239;28;20478;-58
2023/07/26 03:49:39;;;;;;;5.97;2.50;;;11.90;99.90;;;;;;5033417;28;20439;-58
2023/07/26 03:52:07;;;;;;;4.80;2.30;;;11.90;99.90;;;;;;5033466;28;20445;-58
2023/07/26 03:54:34;;;;;;;3.37;2.50;;;11.90;99.90;;;;;;5033395;28;20831;-58
2023/07/26 03:57:02;;;;;;;5.70;3.67;;;11.90;99.90;;;;;;5033277;28;20840;-58
2023/07/26 03:59:29;;;;;;;2.50;2.30;;;11.90;99.90;;;;;;5033194;28;20481;-58
2023/07/26 04:01:55;;;;;;;3.00;2.20;;;11.90;99.90;;;;;;5032820;28;20827;-59
2023/07/26 04:04:22;;;;;;;3.83;2.43;;;11.90;99.90;;;;;;5032708;28;20780;-58
2023/07/26 04:06:49;;;;;;;4.47;3.00;;;11.90;99.90;;;;;;5032672;28;20531;-58
2023/07/26 04:12:01;;;;;;;4.77;3.10;;;11.90;99.90;;;;;;5091515;28;21059;-59
2023/07/26 04:14:27;;;;;;;3.70;3.13;;;11.90;99.90;;;;;;5090018;28;20462;-59
2023/07/26 04:16:54;;;;;;;4.50;2.73;;;12.00;99.90;;;;;;5090187;28;20820;-58
2023/07/26 04:19:21;;;;;;;2.37;2.07;;;12.00;99.90;;;;;;5090409;28;20467;-59
2023/07/26 04:21:48;;;;;;;5.50;2.90;;;12.10;99.90;;;;;;5090605;28;20471;-59
2023/07/26 04:24:14;;;;;;;2.53;2.00;;;12.20;99.90;;;;;;5089902;28;21061;-58
2023/07/26 04:26:41;;;;;;;4.30;2.50;;;12.30;99.90;;;;;;5090410;28;20442;-58
2023/07/26 04:29:09;;;;;;;7.07;2.20;;;12.40;99.90;;;;;;5089915;28;20454;-59
2023/07/26 04:31:36;;;;;;;4.60;2.33;;;12.40;99.90;;;;;;5089896;28;20847;-58
2023/07/26 04:34:03;;;;;;;4.23;2.50;;;12.40;99.90;;;;;;5090232;28;20448;-58
2023/07/26 04:36:29;;;;;;;4.00;1.90;;;12.50;99.90;;;;;;5091176;28;20447;-59
2023/07/26 04:38:56;;;;;;;2.63;2.43;;;12.50;99.90;;;;;;5090913;28;20468;-58
2023/07/26 04:41:23;;;;;;;3.07;2.17;;;12.60;99.90;;;;;;5090677;28;20930;-59
2023/07/26 04:43:50;;;;;;;3.83;2.23;;;12.70;99.90;;;;;;5093463;28;20460;-58
2023/07/26 04:46:18;;;;;;;2.90;2.40;;;12.80;99.90;;;;;;5089657;28;20441;-59
2023/07/26 04:48:45;;;;;;;5.33;2.13;;;12.90;99.90;;;;;;5090183;28;20467;-58
2023/07/26 04:51:12;;;;;;;3.50;2.90;;;13.00;99.90;;;;;;5089746;28;20550;-58
2023/07/26 04:53:39;;;;;;;5.50;2.20;;;13.10;99.90;;;;;;5089885;28;20465;-58
2023/07/26 04:56:06;;;;;;;6.10;2.83;;;13.20;99.90;;;;;;5090165;28;20449;-59
2023/07/26 04:58:33;;;;;;;5.10;2.23;;;13.30;99.90;;;;;;5090185;28;20458;-58
2023/07/26 05:01:00;;;;;;;7.80;2.90;;;13.40;99.90;;;;;;5099512;22;20601;-59
2023/07/26 05:03:28;;;;;;;3.30;2.20;;;13.40;99.90;;;;;;5069301;28;20534;-58
2023/07/26 05:05:55;;;;;;;3.50;2.60;;;13.50;99.90;;;;;;5069690;28;20436;-59
2023/07/26 05:08:22;;;;;;;3.13;2.20;;;13.60;99.90;;;;;;5069400;28;20783;-59
2023/07/26 05:10:50;;;;;;;2.50;2.30;;;13.70;99.90;;;;;;5069403;28;20482;-58
2023/07/26 05:13:17;;;;;;;3.90;2.23;;;13.90;99.90;;;;;;5069413;28;20446;-59
2023/07/26 05:15:44;;;;;;;3.10;2.50;;;14.10;99.90;;;;;;5069134;28;20463;-60
2023/07/26 05:18:10;;;;;;;2.60;2.40;;;14.20;99.90;;;;;;5069237;28;20447;-59
2023/07/26 05:20:39;;;;;;;5.53;2.57;;;14.30;99.90;;;;;;5069341;28;20553;-59
2023/07/26 05:23:06;;;;;;;6.50;2.30;;;14.30;99.90;;;;;;5057916;28;20533;-59
2023/07/26 05:25:33;;;;;;;5.17;2.50;;;14.40;99.90;;;;;;5056382;28;20447;-60
2023/07/26 05:28:00;;;;;;;2.80;2.50;;;14.40;99.90;;;;;;5056505;28;20455;-59
2023/07/26 05:30:26;;;;;;;4.70;2.40;;;14.50;99.90;;;;;;5055633;28;20476;-59
2023/07/26 05:32:53;;;;;;;5.37;3.20;;;14.50;99.90;;;;;;5055529;28;20455;-60
2023/07/26 05:35:20;;;;;;;3.77;2.37;;;14.50;99.90;;;;;;5056076;28;20546;-59
2023/07/26 05:37:50;;;;;;;4.40;2.30;;;14.60;99.90;;;;;;5056592;28;20919;-58
2023/07/26 05:40:17;;;;;;;5.70;2.97;;;14.70;99.90;;;;;;5056340;28;20448;-58
2023/07/26 05:42:43;;;;;;;4.83;2.40;;;14.80;99.90;;;;;;5055322;28;20456;-59
2023/07/26 05:45:11;;;;;;;2.67;2.20;;;14.80;99.90;;;;;;5055616;28;20445;-58
2023/07/26 05:47:38;;;;;;;4.57;2.40;;;15.00;99.90;;;;;;5055549;28;20455;-58
2023/07/26 05:50:06;;;;;;;2.37;2.03;;;15.10;99.90;;;;;;5055366;28;20449;-59
2023/07/26 05:52:33;;;;;;;4.53;2.40;;;15.30;99.90;;;;;;5056032;28;20465;-58
2023/07/26 05:55:01;;;;;;;5.73;2.40;;;15.50;99.90;;;;;;5056081;28;20441;-58
2023/07/26 05:57:28;;;;;;;2.60;2.07;;;15.80;99.90;;;;;;5056173;28;20446;-59
2023/07/26 05:59:55;;;;;;;3.03;2.20;;;16.00;99.90;;;;;;5055963;28;20464;-57
2023/07/26 06:02:22;;;;;;;7.00;2.47;;;16.20;99.90;;;;;;5055724;28;20470;-60
2023/07/26 06:04:48;;;;;;;2.97;2.67;;;16.50;99.90;;;;;;5055534;28;20446;-58
2023/07/26 06:07:16;;;;;;;4.80;2.50;;;16.60;99.90;;;;;;5055196;28;21001;-58
2023/07/26 06:09:43;;;;;;;4.50;2.33;;;16.70;99.90;;;;;;5055346;28;20442;-58
2023/07/26 06:12:11;;;;;;;11.67;2.70;;;16.70;99.70;;;;;;5055369;28;20490;-58
2023/07/26 06:14:38;;;;;;;5.43;2.63;;;16.80;98.90;;;;;;5054997;28;20457;-59
2023/07/26 06:17:06;;;;;;;2.20;1.93;;;16.70;98.60;;;;;;5054899;28;20943;-60
2023/07/26 06:19:32;;;;;;;3.50;2.40;;;16.60;98.60;;;;;;5055881;28;20452;-59
2023/07/26 06:21:59;;;;;;;2.97;2.40;;;16.70;98.60;;;;;;5056087;28;20462;-59
2023/07/26 06:24:27;;;;;;;4.37;2.07;;;16.90;98.50;;;;;;5055183;28;20481;-58
2023/07/26 06:26:54;;;;;;;3.10;1.87;;;17.10;97.40;;;;;;5055312;28;20654;-59
2023/07/26 06:29:22;;;;;;;4.30;2.13;;;17.20;96.50;;;;;;5054599;28;20444;-58
2023/07/26 06:31:49;;;;;;;4.00;1.97;;;17.30;96.00;;;;;;5054682;28;20483;-58
2023/07/26 06:34:16;;;;;;;4.10;1.70;;;17.30;95.40;;;;;;5054537;28;20445;-58
2023/07/26 06:36:43;;;;;;;4.03;1.93;;;17.20;94.80;;;;;;5055790;28;20452;-58
2023/07/26 06:39:10;;;;;;;3.00;2.00;;;17.20;94.40;;;;;;5054908;28;20800;-57
2023/07/26 06:41:37;;;;;;;3.57;1.93;;;17.10;94.20;;;;;;5054583;28;20846;-59
2023/07/26 06:44:04;;;;;;;4.57;2.30;;;17.10;94.10;;;;;;5055406;28;20439;-59
2023/07/26 06:46:33;;;;;;;2.57;2.33;;;17.10;93.80;;;;;;5054858;28;20442;-58
2023/07/26 06:49:00;;;;;;;2.20;1.80;;;17.00;93.50;;;;;;5054971;28;20834;-59
2023/07/26 06:51:26;;;;;;;3.00;1.60;;;17.00;93.50;;;;;;5055077;28;20482;-59
2023/07/26 06:53:53;;;;;;;5.43;1.77;;;17.00;93.50;;;;;;5054796;28;20497;-59
2023/07/26 06:56:20;;;;;;;2.40;1.73;;;17.10;93.40;;;;;;5054697;28;20456;-60
2023/07/26 06:58:47;;;;;;;2.93;1.97;;;17.20;93.40;;;;;;5054419;28;20966;-60
2023/07/26 07:01:18;;;;;;;4.87;2.00;;;17.20;92.80;;;;;;5053807;28;21014;-59
2023/07/26 07:03:46;;;;;;;5.23;2.60;;;17.20;92.50;;;;;;5054395;28;20451;-60
2023/07/26 07:06:12;;;;;;;3.10;1.80;;;17.10;92.40;;;;;;5054456;28;20801;-60
2023/07/26 07:08:39;;;;;;;3.00;2.20;;;17.10;92.30;;;;;;5054187;28;20541;-60
2023/07/26 07:11:06;;;;;;;2.07;1.87;;;17.20;92.40;;;;;;5054255;28;20494;-60
2023/07/26 07:13:35;;;;;;;3.40;2.17;;;17.40;92.10;;;;;;5054811;28;20457;-61
2023/07/26 07:16:03;;;;;;;3.37;1.90;;;17.50;91.80;;;;;;5054734;28;20504;-59
2023/07/26 07:18:30;;;;;;;3.40;1.60;;;17.70;91.40;;;;;;5055316;28;20446;-59
2023/07/26 07:21:00;;;;;;;2.93;1.70;;;17.70;90.70;;;;;;5056079;28;20478;-59
2023/07/26 07:23:28;;;;;;;3.80;2.07;;;17.50;90.30;;;;;;5057382;28;20892;-59
2023/07/26 07:25:54;;;;;;;3.77;2.60;;;17.50;90.50;;;;;;5056608;28;20520;-61
2023/07/26 07:28:21;;;;;;;7.67;1.93;;;17.40;90.40;;;;;;5055015;28;20455;-58
2023/07/26 07:30:49;;;;;;;2.80;1.80;;;17.20;90.50;;;;;;5054601;28;20975;-59
2023/07/26 07:33:16;;;;;;;2.80;1.93;;;17.00;91.10;;;;;;5055172;28;20459;-59
2023/07/26 07:35:43;;;;;;;2.63;1.80;;;16.80;91.80;;;;;;5054373;28;20446;-60
2023/07/26 07:38:11;;;;;;;1.80;1.70;;;16.80;92.40;;;;;;5054407;28;20818;-59
2023/07/26 07:40:38;;;;;;;4.10;1.90;;;16.90;92.70;;;;;;5054159;28;20560;-60
2023/07/26 07:43:04;;;;;;;3.50;2.10;;;17.00;92.50;;;;;;5054025;28;20450;-59
2023/07/26 07:45:31;;;;;;;2.07;1.50;;;17.10;92.10;;;;;;5053347;28;20451;-59
2023/07/26 07:47:58;;;;;;;4.87;1.97;;;17.20;91.70;;;;;;5054528;28;20450;-59
2023/07/26 07:50:25;;;;;;;6.13;1.93;;;17.30;91.40;;;;;;5053525;28;20483;-60
2023/07/26 07:52:51;;;;;;;1.80;1.53;;;17.50;91.10;;;;;;5053339;28;20487;-60
2023/07/26 07:55:20;;;;;;;2.20;1.50;;;17.70;90.40;;;;;;5053407;28;20763;-59
2023/07/26 07:57:46;;;;;;;2.70;1.57;;;18.00;89.10;;;;;;5053387;28;20443;-60
2023/07/26 08:00:14;;;;;;;2.37;1.60;;;18.20;87.60;;;;;;5053213;28;20453;-58
2023/07/26 08:02:41;;;;;;;2.07;1.30;;;18.60;85.00;;;;;;5053707;28;20446;-59
2023/07/26 08:05:08;;;;;;;3.13;1.43;;;18.80;82.20;;;;;;5053439;28;20447;-58
2023/07/26 08:07:35;;;;;;;2.07;1.70;;;18.90;80.20;;;;;;5053313;28;20443;-58
2023/07/26 08:10:02;;;;;;;3.63;1.40;;;18.90;77.80;;;;;;5053494;28;20465;-57
2023/07/26 08:12:34;;;;;;;2.13;1.20;;;18.80;76.70;;;;;;5053418;28;20483;-59
2023/07/26 08:15:00;;;;;;;4.23;1.47;;;18.70;76.40;;;;;;5054246;28;20429;-59
2023/07/26 08:17:27;;;;;;;2.10;1.90;;;18.50;76.30;;;;;;5053439;28;20805;-59
2023/07/26 08:19:54;;;;;;;2.30;1.20;;;18.50;76.50;;;;;;5053995;28;20440;-60
2023/07/26 08:22:21;;;;;;;1.50;1.37;;;18.50;76.00;;;;;;5054403;28;20471;-60
2023/07/26 08:24:51;;;;;;;1.97;1.30;;;18.50;75.30;;;;;;5053542;28;20527;-60
2023/07/26 08:27:18;;;;;;;1.30;1.10;;;18.50;74.40;;;;;;5053553;28;20965;-60
2023/07/26 08:29:46;;;;;;;1.70;1.23;;;18.60;73.40;;;;;;5053924;28;20448;-58
2023/07/26 08:32:13;;;;;;;2.13;1.40;;;18.60;72.50;;;;;;5053313;28;21074;-59
2023/07/26 08:34:40;;;;;;;2.03;1.33;;;18.50;71.60;;;;;;5053104;28;20473;-59
2023/07/26 08:37:08;;;;;;;1.97;1.50;;;18.40;70.40;;;;;;5053493;28;20440;-59
2023/07/26 08:39:35;;;;;;;2.50;1.27;;;18.40;70.60;;;;;;5054860;28;20459;-59
2023/07/26 08:42:02;;;;;;;1.83;1.40;;;18.30;71.20;;;;;;5056536;28;20463;-59
2023/07/26 08:44:30;;;;;;;2.90;1.53;;;18.50;71.50;;;;;;5054269;28;20447;-63
2023/07/26 08:47:00;;;;;;;2.47;1.50;;;18.80;71.30;;;;;;5054317;28;20444;-61
2023/07/26 08:49:28;;;;;;;1.90;1.50;;;19.00;70.40;;;;;;5054126;28;20439;-59
2023/07/26 08:51:57;;;;;;;2.90;1.80;;;19.10;70.30;;;;;;5054405;28;20849;-59
2023/07/26 08:54:23;;;;;;;1.80;1.70;;;19.10;70.20;;;;;;5054599;28;21049;-58
2023/07/26 08:56:51;;;;;;;5.50;2.17;;;19.20;70.10;;;;;;5055875;28;20449;-60
2023/07/26 08:59:20;;;;;;;3.40;1.83;;;19.40;70.00;;;;;;5057811;28;20451;-59
2023/07/26 09:01:47;;;;;;;1.87;1.77;;;19.50;69.50;;;;;;5058229;28;20468;-60
2023/07/26 09:04:16;;;;;;;2.70;1.63;;;19.40;69.50;;;;;;5057855;28;20448;-59
2023/07/26 09:06:44;;;;;;;4.00;2.17;;;19.40;70.00;;;;;;5058349;28;20435;-60
2023/07/26 09:09:12;;;;;;;2.53;1.60;;;19.40;70.20;;;;;;5057816;28;20459;-59
2023/07/26 09:11:49;;;;;;;4.20;1.73;;;19.50;70.20;;;;;;5057158;28;20529;-60
2023/07/26 09:14:16;;;;;;;2.30;1.60;;;19.70;69.70;;;;;;5057283;28;20498;-59
2023/07/26 09:16:43;;;;;;;4.83;3.50;;;19.60;69.10;;;;;;5057560;28;20448;-59
2023/07/26 09:19:10;;;;;;;2.20;1.70;;;19.50;69.40;;;;;;5057513;28;20452;-61
2023/07/26 09:21:38;;;;;;;2.80;1.80;;;19.30;69.70;;;;;;5057676;28;20464;-61
2023/07/26 09:24:05;;;;;;;3.37;2.13;;;19.10;70.20;;;;;;5057115;28;20455;-62
2023/07/26 09:26:39;;;;;;;2.00;1.40;;;19.00;70.40;;;;;;5057070;28;20507;-59
2023/07/26 09:29:09;;;;;;;6.30;1.50;;;18.90;69.80;;;;;;5057704;28;20440;-59
2023/07/26 09:31:38;;;;;;;2.27;1.53;;;19.00;69.00;;;;;;5057582;28;20487;-59
2023/07/26 09:34:10;;;;;;;3.47;1.93;;;19.30;68.10;;;;;;5057977;28;20479;-59
2023/07/26 09:36:46;;;;;;;2.87;2.03;;;19.50;67.40;;;;;;5057823;28;20435;-59
2023/07/26 09:39:14;;;;;;;2.53;1.60;;;19.60;67.10;;;;;;5057525;28;20444;-61
2023/07/26 09:41:41;;;;;;;2.30;1.50;;;19.50;67.20;;;;;;5057644;28;20457;-61
2023/07/26 09:44:15;;;;;;;3.33;1.57;;;19.50;66.20;;;;;;5057066;28;21000;-60
2023/07/26 09:46:53;;;;;;;2.27;1.60;;;19.60;64.90;;;;;;5057701;28;20432;-61
2023/07/26 09:49:22;;;;;;;3.83;1.77;;;19.70;63.80;;;;;;5057597;28;20440;-60
2023/07/26 09:51:54;;;;;;;3.10;1.33;;;19.70;63.20;;;;;;5058313;28;20488;-60
2023/07/26 09:54:21;;;;;;;3.37;1.60;;;19.80;63.40;;;;;;5057823;28;20463;-59
2023/07/26 09:56:48;;;;;;;2.33;1.70;;;20.00;63.10;;;;;;5057457;28;20463;-59
2023/07/26 09:59:15;;;;;;;1.70;1.60;;;20.20;62.10;;;;;;5057415;28;20516;-60
2023/07/26 10:01:45;;;;;;;1.70;1.50;;;20.40;60.50;;;;;;5056292;28;20567;-60
2023/07/26 10:04:13;;;;;;;1.80;1.50;;;20.30;59.80;;;;;;5058253;28;20917;-60
2023/07/26 10:06:42;;;;;;;3.40;1.60;;;20.30;59.10;;;;;;5060274;28;20528;-59
2023/07/26 10:09:14;;;;;;;2.07;1.37;;;20.20;58.90;;;;;;5059916;28;20454;-59
2023/07/26 10:11:43;;;;;;;3.97;1.97;;;20.10;58.90;;;;;;5060795;28;20985;-58
2023/07/26 10:14:11;;;;;;;2.87;2.13;;;20.00;59.00;;;;;;5060817;28;20440;-59
2023/07/26 10:16:38;;;;;;;2.30;1.63;;;20.00;59.40;;;;;;5060357;28;20448;-59
2023/07/26 10:19:06;;;;;;;3.17;2.00;;;20.00;59.90;;;;;;5059095;28;20457;-59
2023/07/26 10:21:34;;;;;;;2.30;1.60;;;20.20;59.50;;;;;;5060136;28;20499;-58
2023/07/26 10:24:03;;;;;;;2.10;1.47;;;20.50;58.90;;;;;;5059183;28;20455;-60
2023/07/26 10:26:34;;;;;;;2.20;1.50;;;20.70;57.00;;;;;;5060035;28;20479;-59
2023/07/26 10:29:02;;;;;;;1.80;1.40;;;20.80;56.60;;;;;;5060547;28;20439;-60
2023/07/26 10:31:29;;;;;;;4.13;1.70;;;20.90;55.40;;;;;;5058250;28;20465;-59
2023/07/26 10:33:57;;;;;;;2.60;1.80;;;20.90;54.80;;;;;;5059217;28;21000;-59
2023/07/26 10:36:28;;;;;;;4.80;2.33;;;20.90;54.80;;;;;;5056964;28;20969;-59
2023/07/26 10:38:55;;;;;;;6.57;2.70;;;20.60;56.00;;;;;;5056490;28;20421;-61
2023/07/26 10:41:26;;;;;;;4.50;2.70;;;19.80;59.80;;;;;;5056434;28;20452;-59
2023/07/26 10:44:04;;;;;;;3.17;1.80;;;18.90;65.40;;;;;;5055705;28;20428;-58
2023/07/26 10:46:47;;;;;;;3.70;2.07;;;18.20;71.60;;;;;;5056104;28;20432;-59
2023/07/26 10:49:20;;;;;;;3.07;2.00;;;17.60;76.10;;;;;;5056149;28;20430;-59
2023/07/26 10:51:52;;;;;;;2.10;1.63;;;17.30;78.40;;;;;;5055643;28;20478;-57
2023/07/26 10:54:41;;;;;;;1.30;1.20;;;17.10;78.10;;;;;;5055245;28;20989;-58
2023/07/26 10:57:18;;;;;;;1.73;1.60;;;16.90;78.40;;;;;;5049668;28;20976;-59
2023/07/26 10:59:57;;;;;;;2.17;1.70;;;16.80;80.50;;;;;;5055994;28;20440;-59
2023/07/26 11:02:43;;;;;;;3.30;2.17;;;16.70;84.20;;;;;;5056541;28;20552;-59
2023/07/26 11:05:20;;;;;;;2.50;2.07;;;16.70;88.80;;;;;;5055917;28;20429;-59
2023/07/26 11:07:51;;;;;;;2.93;2.00;;;16.60;91.60;;;;;;5055862;28;20426;-58
2023/07/26 11:10:20;;;;;;;3.50;2.67;;;16.60;92.80;;;;;;5081545;22;20494;-58
2023/07/26 11:12:50;;;;;;;3.57;1.80;;;16.70;93.30;;;;;;5055355;28;20478;-59
2023/07/26 11:15:27;;;;;;;2.20;1.40;;;16.80;93.40;;;;;;5054600;28;20467;-58
2023/07/26 11:17:54;;;;;;;2.80;2.07;;;17.00;93.50;;;;;;5054574;28;20908;-56
2023/07/26 11:20:21;;;;;;;2.00;1.57;;;17.20;92.10;;;;;;5053810;28;20456;-58
2023/07/26 11:22:48;;;;;;;3.23;2.10;;;17.40;92.00;;;;;;5055980;28;20449;-59
2023/07/26 11:25:15;;;;;;;2.50;1.63;;;17.70;91.40;;;;;;5055373;28;20892;-59
2023/07/26 11:27:42;;;;;;;3.03;2.20;;;18.00;90.40;;;;;;5055439;28;20445;-59
2023/07/26 11:30:14;;;;;;;2.07;1.40;;;18.30;88.00;;;;;;5055090;28;20451;-56
2023/07/26 11:32:45;;;;;;;2.80;2.00;;;18.40;85.00;;;;;;5054488;28;20925;-58
2023/07/26 11:35:15;;;;;;;4.03;2.43;;;18.40;83.20;;;;;;5055297;28;20432;-58
2023/07/26 11:37:51;;;;;;;2.47;1.70;;;18.10;84.20;;;;;;5054012;28;20898;-58
2023/07/26 11:40:18;;;;;;;4.47;2.20;;;17.70;86.40;;;;;;5054437;28;20473;-56
2023/07/26 11:42:45;;;;;;;3.50;2.70;;;17.40;88.80;;;;;;5053975;28;20438;-59
2023/07/26 11:45:12;;;;;;;2.20;2.00;;;17.30;90.60;;;;;;5053636;28;20921;-57
2023/07/26 11:47:39;;;;;;;2.43;2.00;;;17.30;91.50;;;;;;5053473;28;20648;-58
2023/07/26 11:50:08;;;;;;;2.57;1.90;;;17.30;91.80;;;;;;5053442;28;20445;-57
2023/07/26 11:52:35;;;;;;;2.00;1.73;;;17.40;91.60;;;;;;5053291;28;20482;-58
2023/07/26 11:55:04;;;;;;;2.00;1.67;;;17.70;90.90;;;;;;5054419;28;20447;-57
2023/07/26 11:57:31;;;;;;;2.40;1.83;;;18.00;89.40;;;;;;5053296;28;20457;-58
2023/07/26 12:00:01;;;;;;;3.10;2.20;;;18.50;86.10;;;;;;5053358;28;20457;-58
2023/07/26 12:02:29;;;;;;;5.40;2.20;;;19.40;82.10;;;;;;5053052;28;20481;-57
2023/07/26 12:05:16;;;;;;;2.00;1.60;;;20.30;74.70;;;;;;5053244;28;20454;-59
2023/07/26 12:07:45;;;;;;;3.13;2.03;;;21.20;69.50;;;;;;5053553;28;20443;-58
2023/07/26 12:10:12;;;;;;;2.83;1.80;;;21.80;65.00;;;;;;5052941;28;20475;-58
2023/07/26 12:12:43;;;;;;;2.33;1.90;;;22.00;62.70;;;;;;5053383;28;20475;-59
2023/07/26 12:15:10;;;;;;;2.50;2.10;;;22.30;60.10;;;;;;5053100;28;20547;-58
2023/07/26 12:17:37;;;;;;;3.97;1.87;;;22.60;58.30;;;;;;5053348;28;20524;-58
2023/07/26 12:20:06;;;;;;;5.30;2.30;;;22.80;56.60;;;;;;5053442;28;20449;-58
2023/07/26 12:22:49;;;;;;;3.27;1.90;;;22.90;55.40;;;;;;5053361;28;20527;-58
2023/07/26 12:25:16;;;;;;;2.33;1.87;;;23.10;54.50;;;;;;5053313;28;20436;-56
2023/07/26 12:27:42;;;;;;;2.63;1.97;;;23.30;53.40;;;;;;5053371;28;20498;-58
2023/07/26 12:30:12;;;;;;;2.13;1.70;;;23.50;52.70;;;;;;5052859;28;20966;-59
2023/07/26 12:32:39;;;;;;;2.17;1.80;;;23.50;52.40;;;;;;5055323;28;20484;-59
2023/07/26 12:35:19;;;;;;;2.00;1.70;;;23.60;51.40;;;;;;5056709;28;20451;-58
2023/07/26 12:37:49;;;;;;;1.97;1.63;;;23.60;50.60;;;;;;5056944;28;20425;-58
2023/07/26 12:40:16;;;;;;;4.27;2.27;;;23.40;49.70;;;;;;5059541;28;20428;-59
2023/07/26 12:42:43;;;;;;;2.67;2.03;;;23.10;49.80;;;;;;5057962;28;20806;-58
2023/07/26 12:45:10;;;;;;;3.90;1.87;;;22.70;50.30;;;;;;5056243;28;20805;-58
2023/07/26 12:47:38;;;;;;;2.17;1.90;;;22.20;51.50;;;;;;5056307;28;20521;-56
2023/07/26 12:50:06;;;;;;;2.63;1.87;;;22.00;52.70;;;;;;5056497;28;20543;-58
2023/07/26 12:52:37;;;;;;;3.07;2.30;;;21.80;53.10;;;;;;5056604;28;20811;-57
2023/07/26 12:55:07;;;;;;;2.23;1.70;;;21.60;53.40;;;;;;5056989;28;20433;-58